MSC Maeva — H9TF — position and weather

sailwx.info

Track history (hours):
 
Tides and Currents Weather Stations Pressure Air Temp Water Temp Dewpoint Dewpoint Depression Visibility Wind Speed Wind Dir Waves Ship Positions

MSC Maeva

Last reported at 2018-Jul-17 23:36 UTC. Time now 2018-Jul-20 03:04 UTC.
Position N 36°56' W 011°07'.

Type: Ship (hazmat cat A). MMSI: 371851000.

Date/timePositionNaut miles runAvg speedWind from/ knotsBaromVisibWave heightAir tempDewpointWater temp
2018-Jul-17 23:36N 36°56' W 011°07'4020.1
2018-Jul-17 21:35N 36°42' W 010°20'220.2
2018-Jul-17 21:30N 36°41' W 010°18'1020.3
2018-Jul-17 21:00N 36°38' W 010°06'1020.0
2018-Jul-17 20:30N 36°35' W 009°54'1219.6
2018-Jul-17 19:55N 36°30' W 009°41'819.9
2018-Jul-17 19:30N 36°26' W 009°32'1019.8
2018-Jul-17 19:00N 36°20' W 009°22'1019.8
2018-Jul-17 18:30N 36°17' W 009°10'1019.9
2018-Jul-17 18:00N 36°14' W 008°59'1019.8
2018-Jul-17 17:30N 36°10' W 008°47'1019.9
2018-Jul-17 17:00N 36°07' W 008°36'1020.0
2018-Jul-17 16:30N 36°04' W 008°24'1020.1
2018-Jul-17 16:00N 36°01' W 008°12'1120.0
2018-Jul-17 15:27N 35°60' W 007°59'920.1
2018-Jul-17 15:00N 35°59' W 007°48'11219.8
2018-Jul-17 09:22N 35°58' W 005°29'718.7
2018-Jul-17 09:00N 36°00' W 005°21'918.1
2018-Jul-17 08:30N 36°02' W 005°10'21019.1
2018-Jul-16 21:31N 37°12' W 001°04'021.6
2018-Jul-16 21:30N 37°13' W 001°04'13516.7
2018-Jul-16 13:26N 39°21' W 000°12'613.5
2018-Jul-16 12:59N 39°25' W 000°17'2 4.1
2018-Jul-16 12:30N 39°26' W 000°20'0 0.0
2018-Jul-16 11:58N 39°26' W 000°20'0 0.0
2018-Jul-16 11:22N 39°26' W 000°20'0 0.0
2018-Jul-16 10:58N 39°26' W 000°20'0 0.0
2018-Jul-16 10:28N 39°26' W 000°20'0 0.0
2018-Jul-16 08:52N 39°26' W 000°20'0 0.0
2018-Jul-16 07:34N 39°26' W 000°20'0 0.0
2018-Jul-16 02:21N 39°26' W 000°20'0 0.0
2018-Jul-15 17:18N 39°26' W 000°20'0 0.0
2018-Jul-15 11:36N 39°26' W 000°20'0 0.0
2018-Jul-15 09:15N 39°26' W 000°20'0 0.0
2018-Jul-15 08:57N 39°26' W 000°20'0 0.0
2018-Jul-15 08:21N 39°26' W 000°20'0 0.0
2018-Jul-15 07:57N 39°26' W 000°20'0 0.0
2018-Jul-15 07:24N 39°26' W 000°20'0 0.0
2018-Jul-15 04:54N 39°26' W 000°20'0 0.0
2018-Jul-14 23:03N 39°26' W 000°20'0 0.0
2018-Jul-14 22:57N 39°26' W 000°20'1 1.2
2018-Jul-14 22:30N 39°26' W 000°19'3 5.7
2018-Jul-14 22:00N 39°25' W 000°16'3 5.5
2018-Jul-14 21:31N 39°25' W 000°12'3 6.5
2018-Jul-14 21:00N 39°26' W 000°08'118 9.8
2018-Jul-14 08:59N 39°06' E 002°23'713.9
2018-Jul-14 08:30N 39°05' E 002°31'713.8
2018-Jul-14 08:01N 39°04' E 002°40'713.9
2018-Jul-14 07:30N 39°03' E 002°49'713.8
2018-Jul-14 07:00N 39°02' E 002°58'713.8
2018-Jul-14 06:30N 39°00' E 003°06'6014.0
2018-Jul-14 02:13N 38°48' E 004°21'414.4
2018-Jul-14 01:55N 38°47' E 004°27'5714.1
2018-Jul-13 21:53N 38°35' E 005°38'1214.2
2018-Jul-13 21:01N 38°32' E 005°53'014.2
2018-Jul-13 21:00N 38°32' E 005°54'1214.1
2018-Jul-13 20:10N 38°30' E 006°09'214.1
2018-Jul-13 20:00N 38°29' E 006°11'1013.8
2018-Jul-13 19:15N 38°27' E 006°25'1113.7
2018-Jul-13 18:25N 38°25' E 006°39'1313.7
2018-Jul-13 17:30N 38°22' E 006°55'1014.2
2018-Jul-13 16:49N 38°20' E 007°06'7614.2
2018-Jul-13 11:27N 38°04' E 008°41'1615.3
2018-Jul-13 10:25N 38°01' E 009°01'715.6
2018-Jul-13 10:00N 37°60' E 009°09'815.9
2018-Jul-13 09:30N 37°58' E 009°19'4515.7
2018-Jul-13 06:39N 37°49' E 010°14'215.2
2018-Jul-13 06:30N 37°48' E 010°17'1015.4
2018-Jul-13 05:52N 37°46' E 010°29'715.7
2018-Jul-13 05:26N 37°44' E 010°38'11115.7
2018-Jul-12 22:21N 37°16' E 012°53'616.0
2018-Jul-12 21:59N 37°14' E 012°60'1815.9
2018-Jul-12 20:52N 37°05' E 013°19'616.0
2018-Jul-12 20:30N 37°01' E 013°25'816.3
2018-Jul-12 20:00N 36°57' E 013°33'816.4
2018-Jul-12 19:30N 36°52' E 013°42'816.0
2018-Jul-12 19:00N 36°48' E 013°50'815.9
2018-Jul-12 18:30N 36°43' E 013°58'815.6
2018-Jul-12 18:00N 36°40' E 014°07'815.5
2018-Jul-12 17:31N 36°36' E 014°15'815.5
2018-Jul-12 16:59N 36°33' E 014°25'715.5
2018-Jul-12 16:30N 36°30' E 014°33'815.4
2018-Jul-12 16:01N 36°27' E 014°42'815.3
2018-Jul-12 15:30N 36°24' E 014°51'815.2
2018-Jul-12 15:00N 36°20' E 014°59'815.5
2018-Jul-12 14:31N 36°19' E 015°08'1115.9
2018-Jul-12 13:48N 36°16' E 015°22'515.8
2018-Jul-12 13:28N 36°15' E 015°28'  
2018-Jul-10 02:38N 32°57' E 034°36'216.8
2018-Jul-10 02:30N 32°55' E 034°39'817.1
2018-Jul-10 02:00N 32°54' E 034°48'916.7
2018-Jul-10 01:29N 32°52' E 034°58'1 0.0
2018-Jul-09 02:35N 32°51' E 034°59'0 2.1
2018-Jul-09 02:30N 32°52' E 034°59'2 3.5
2018-Jul-09 02:00N 32°53' E 034°58'1 1.6
2018-Jul-09 01:29N 32°53' E 034°57'0 0.5
2018-Jul-09 01:00N 32°53' E 034°57'1 1.7
2018-Jul-09 00:25N 32°53' E 034°55'4 9.4
2018-Jul-08 23:59N 32°53' E 034°51'712.7
2018-Jul-08 23:27N 32°54' E 034°43'613.9
2018-Jul-08 23:01N 32°55' E 034°35'714.7
2018-Jul-08 22:31N 32°57' E 034°27'815.2
2018-Jul-08 22:01N 32°58' E 034°18'815.1
2018-Jul-08 21:30N 32°59' E 034°09'714.6
2018-Jul-08 21:00N 32°58' E 034°00'815.1
2018-Jul-08 20:31N 32°54' E 033°53'816.3
2018-Jul-08 20:01N 32°48' E 033°46'816.6
2018-Jul-08 19:31N 32°42' E 033°40'816.8
2018-Jul-08 19:00N 32°35' E 033°33'816.8
2018-Jul-08 18:30N 32°29' E 033°26'816.5
2018-Jul-08 18:01N 32°23' E 033°20'816.9
2018-Jul-08 17:30N 32°16' E 033°14'1417.0
2018-Jul-08 16:42N 32°06' E 033°04'417.1
2018-Jul-08 16:30N 32°03' E 033°01'917.1
2018-Jul-08 15:59N 31°56' E 032°55'817.1
2018-Jul-08 15:30N 31°50' E 032°48'917.3
2018-Jul-08 15:00N 31°44' E 032°41'917.9
2018-Jul-08 14:30N 31°39' E 032°32'917.0
2018-Jul-08 14:00N 31°35' E 032°23'816.7
2018-Jul-08 13:29N 31°26' E 032°24'816.0
2018-Jul-08 13:00N 31°19' E 032°22'611.9
2018-Jul-08 12:30N 31°13' E 032°21'4 7.6
2018-Jul-08 12:00N 31°09' E 032°19'7 9.9
2018-Jul-08 11:16N 31°02' E 032°19'3 9.9
2018-Jul-08 11:00N 30°59' E 032°19'5 9.3
2018-Jul-08 10:30N 30°55' E 032°19'  
Track history (hours):
 
Tides and Currents Weather Stations Pressure Air Temp Water Temp Dewpoint Dewpoint Depression Visibility Wind Speed Wind Dir Waves Ship Positions

MSC Maeva

Last reported at 2018-Jul-17 23:36 UTC. Time now 2018-Jul-20 03:04 UTC.
Position N 36°56' W 011°07'.

Type: Ship (hazmat cat A). MMSI: 371851000.

Date/timePositionNaut miles runAvg speedWind from/ knotsBaromVisibWave heightAir tempDewpointWater temp
2018-Jul-17 23:36N 36°56' W 011°07'4020.1
2018-Jul-17 21:35N 36°42' W 010°20'220.2
2018-Jul-17 21:30N 36°41' W 010°18'1020.3
2018-Jul-17 21:00N 36°38' W 010°06'1020.0
2018-Jul-17 20:30N 36°35' W 009°54'1219.6
2018-Jul-17 19:55N 36°30' W 009°41'819.9
2018-Jul-17 19:30N 36°26' W 009°32'1019.8
2018-Jul-17 19:00N 36°20' W 009°22'1019.8
2018-Jul-17 18:30N 36°17' W 009°10'1019.9
2018-Jul-17 18:00N 36°14' W 008°59'1019.8
2018-Jul-17 17:30N 36°10' W 008°47'1019.9
2018-Jul-17 17:00N 36°07' W 008°36'1020.0
2018-Jul-17 16:30N 36°04' W 008°24'1020.1
2018-Jul-17 16:00N 36°01' W 008°12'1120.0
2018-Jul-17 15:27N 35°60' W 007°59'920.1
2018-Jul-17 15:00N 35°59' W 007°48'11219.8
2018-Jul-17 09:22N 35°58' W 005°29'718.7
2018-Jul-17 09:00N 36°00' W 005°21'918.1
2018-Jul-17 08:30N 36°02' W 005°10'21019.1
2018-Jul-16 21:31N 37°12' W 001°04'021.6
2018-Jul-16 21:30N 37°13' W 001°04'13516.7
2018-Jul-16 13:26N 39°21' W 000°12'613.5
2018-Jul-16 12:59N 39°25' W 000°17'2 4.1
2018-Jul-16 12:30N 39°26' W 000°20'0 0.0
2018-Jul-16 11:58N 39°26' W 000°20'0 0.0
2018-Jul-16 11:22N 39°26' W 000°20'0 0.0
2018-Jul-16 10:58N 39°26' W 000°20'0 0.0
2018-Jul-16 10:28N 39°26' W 000°20'0 0.0
2018-Jul-16 08:52N 39°26' W 000°20'0 0.0
2018-Jul-16 07:34N 39°26' W 000°20'0 0.0
2018-Jul-16 02:21N 39°26' W 000°20'0 0.0
2018-Jul-15 17:18N 39°26' W 000°20'0 0.0
2018-Jul-15 11:36N 39°26' W 000°20'0 0.0
2018-Jul-15 09:15N 39°26' W 000°20'0 0.0
2018-Jul-15 08:57N 39°26' W 000°20'0 0.0
2018-Jul-15 08:21N 39°26' W 000°20'0 0.0
2018-Jul-15 07:57N 39°26' W 000°20'0 0.0
2018-Jul-15 07:24N 39°26' W 000°20'0 0.0
2018-Jul-15 04:54N 39°26' W 000°20'0 0.0
2018-Jul-14 23:03N 39°26' W 000°20'0 0.0
2018-Jul-14 22:57N 39°26' W 000°20'1 1.2
2018-Jul-14 22:30N 39°26' W 000°19'3 5.7
2018-Jul-14 22:00N 39°25' W 000°16'3 5.5
2018-Jul-14 21:31N 39°25' W 000°12'3 6.5
2018-Jul-14 21:00N 39°26' W 000°08'118 9.8
2018-Jul-14 08:59N 39°06' E 002°23'713.9
2018-Jul-14 08:30N 39°05' E 002°31'713.8
2018-Jul-14 08:01N 39°04' E 002°40'713.9
2018-Jul-14 07:30N 39°03' E 002°49'713.8
2018-Jul-14 07:00N 39°02' E 002°58'713.8
2018-Jul-14 06:30N 39°00' E 003°06'6014.0
2018-Jul-14 02:13N 38°48' E 004°21'414.4
2018-Jul-14 01:55N 38°47' E 004°27'5714.1
2018-Jul-13 21:53N 38°35' E 005°38'1214.2
2018-Jul-13 21:01N 38°32' E 005°53'014.2
2018-Jul-13 21:00N 38°32' E 005°54'1214.1
2018-Jul-13 20:10N 38°30' E 006°09'214.1
2018-Jul-13 20:00N 38°29' E 006°11'1013.8
2018-Jul-13 19:15N 38°27' E 006°25'1113.7
2018-Jul-13 18:25N 38°25' E 006°39'1313.7
2018-Jul-13 17:30N 38°22' E 006°55'1014.2
2018-Jul-13 16:49N 38°20' E 007°06'7614.2
2018-Jul-13 11:27N 38°04' E 008°41'1615.3
2018-Jul-13 10:25N 38°01' E 009°01'715.6
2018-Jul-13 10:00N 37°60' E 009°09'815.9
2018-Jul-13 09:30N 37°58' E 009°19'4515.7
2018-Jul-13 06:39N 37°49' E 010°14'215.2
2018-Jul-13 06:30N 37°48' E 010°17'1015.4
2018-Jul-13 05:52N 37°46' E 010°29'715.7
2018-Jul-13 05:26N 37°44' E 010°38'11115.7
2018-Jul-12 22:21N 37°16' E 012°53'616.0
2018-Jul-12 21:59N 37°14' E 012°60'1815.9
2018-Jul-12 20:52N 37°05' E 013°19'616.0
2018-Jul-12 20:30N 37°01' E 013°25'816.3
2018-Jul-12 20:00N 36°57' E 013°33'816.4
2018-Jul-12 19:30N 36°52' E 013°42'816.0
2018-Jul-12 19:00N 36°48' E 013°50'815.9
2018-Jul-12 18:30N 36°43' E 013°58'815.6
2018-Jul-12 18:00N 36°40' E 014°07'815.5
2018-Jul-12 17:31N 36°36' E 014°15'815.5
2018-Jul-12 16:59N 36°33' E 014°25'715.5
2018-Jul-12 16:30N 36°30' E 014°33'815.4
2018-Jul-12 16:01N 36°27' E 014°42'815.3
2018-Jul-12 15:30N 36°24' E 014°51'815.2
2018-Jul-12 15:00N 36°20' E 014°59'815.5
2018-Jul-12 14:31N 36°19' E 015°08'1115.9
2018-Jul-12 13:48N 36°16' E 015°22'515.8
2018-Jul-12 13:28N 36°15' E 015°28'  
2018-Jul-10 02:38N 32°57' E 034°36'216.8
2018-Jul-10 02:30N 32°55' E 034°39'817.1
2018-Jul-10 02:00N 32°54' E 034°48'916.7
2018-Jul-10 01:29N 32°52' E 034°58'1 0.0
2018-Jul-09 02:35N 32°51' E 034°59'0 2.1
2018-Jul-09 02:30N 32°52' E 034°59'2 3.5
2018-Jul-09 02:00N 32°53' E 034°58'1 1.6
2018-Jul-09 01:29N 32°53' E 034°57'0 0.5
2018-Jul-09 01:00N 32°53' E 034°57'1 1.7
2018-Jul-09 00:25N 32°53' E 034°55'4 9.4
2018-Jul-08 23:59N 32°53' E 034°51'712.7
2018-Jul-08 23:27N 32°54' E 034°43'613.9
2018-Jul-08 23:01N 32°55' E 034°35'714.7
2018-Jul-08 22:31N 32°57' E 034°27'815.2
2018-Jul-08 22:01N 32°58' E 034°18'815.1
2018-Jul-08 21:30N 32°59' E 034°09'714.6
2018-Jul-08 21:00N 32°58' E 034°00'815.1
2018-Jul-08 20:31N 32°54' E 033°53'816.3
2018-Jul-08 20:01N 32°48' E 033°46'816.6
2018-Jul-08 19:31N 32°42' E 033°40'816.8
2018-Jul-08 19:00N 32°35' E 033°33'816.8
2018-Jul-08 18:30N 32°29' E 033°26'816.5
2018-Jul-08 18:01N 32°23' E 033°20'816.9
2018-Jul-08 17:30N 32°16' E 033°14'1417.0
2018-Jul-08 16:42N 32°06' E 033°04'417.1
2018-Jul-08 16:30N 32°03' E 033°01'917.1
2018-Jul-08 15:59N 31°56' E 032°55'817.1
2018-Jul-08 15:30N 31°50' E 032°48'917.3
2018-Jul-08 15:00N 31°44' E 032°41'917.9
2018-Jul-08 14:30N 31°39' E 032°32'917.0
2018-Jul-08 14:00N 31°35' E 032°23'816.7
2018-Jul-08 13:29N 31°26' E 032°24'816.0
2018-Jul-08 13:00N 31°19' E 032°22'611.9
2018-Jul-08 12:30N 31°13' E 032°21'4 7.6
2018-Jul-08 12:00N 31°09' E 032°19'7 9.9
2018-Jul-08 11:16N 31°02' E 032°19'3 9.9
2018-Jul-08 11:00N 30°59' E 032°19'5 9.3
2018-Jul-08 10:30N 30°55' E 032°19'  

Dump ship's entire track history